Yogi Berra — WDF2990 — position and weather

sailwx.info

Track history (hours):
 
Tides and Currents Weather Stations Pressure Air Temp Water Temp Dewpoint Dewpoint Depression Visibility Wind Speed Wind Dir Waves Ship Positions

Yogi Berra

Owner: PORT IMPERIAL FERRY, WEEHAWKEN, NJ. More information available from US FCC via Universal Licensing System and Coast Guard Vessel Documentation Center.

Last reported at 2017-Dec-16 00:39 UTC. Time now 2017-Dec-17 21:37 UTC.
Position N 40°47' W 074°01'.

Length 25 m; draft 2 m.

Type: Passenger vessel. MMSI: 367434220.

Date/timePositionNaut miles runAvg speedWind from/ knotsBaromVisibWave heightAir tempDewpointWater temp
2017-Dec-16 00:39N 40°47' W 074°01'318.3
2017-Dec-16 00:30N 40°44' W 074°01'3 5.2
2017-Dec-16 00:00N 40°43' W 073°58'1 1.3
2017-Dec-15 23:30N 40°44' W 073°58'3 4.8
2017-Dec-15 22:59N 40°42' W 074°00'2 4.4
2017-Dec-15 22:30N 40°43' W 073°58'1 1.3
2017-Dec-15 22:00N 40°44' W 073°58'3 5.1
2017-Dec-15 21:30N 40°42' W 074°00'4 7.9
2017-Dec-15 21:00N 40°46' W 074°01'0 0.0
2017-Dec-15 20:30N 40°46' W 074°01'0 0.0
2017-Dec-15 15:07N 40°46' W 074°01'112.9
2017-Dec-15 15:00N 40°45' W 074°01'3 5.7
2017-Dec-15 14:30N 40°43' W 073°58'1 2.6
2017-Dec-15 14:00N 40°44' W 073°58'2 4.6
2017-Dec-15 13:30N 40°42' W 073°60'2 3.3
2017-Dec-15 13:00N 40°43' W 073°58'1 2.4
2017-Dec-15 12:30N 40°44' W 073°58'3 5.4
2017-Dec-15 12:00N 40°42' W 073°60'4 8.0
2017-Dec-15 11:30N 40°46' W 074°01'0 0.0
2017-Dec-15 11:00N 40°46' W 074°01'0 0.0
2017-Dec-15 08:02N 40°46' W 074°01'0 0.0
2017-Dec-15 08:00N 40°46' W 074°01'0 0.0
2017-Dec-15 00:59N 40°46' W 074°01'0 0.0
2017-Dec-15 00:29N 40°46' W 074°01'2 0.2
2017-Dec-14 15:00N 40°44' W 074°01'3 5.2
2017-Dec-14 14:31N 40°43' W 073°58'1 2.7
2017-Dec-14 14:00N 40°44' W 073°58'2 4.4
2017-Dec-14 13:30N 40°42' W 073°60'2 3.5
2017-Dec-14 13:00N 40°43' W 073°58'1 1.2
2017-Dec-14 12:30N 40°44' W 073°58'2 5.0
2017-Dec-14 12:00N 40°42' W 074°00'1 1.7
2017-Dec-14 11:30N 40°42' W 074°01'4 8.6
2017-Dec-14 11:01N 40°46' W 074°01'0 0.0
2017-Dec-14 00:44N 40°46' W 074°01'1 4.8
2017-Dec-14 00:31N 40°45' W 074°01'3 5.9
2017-Dec-14 00:01N 40°43' W 073°58'1 1.7
2017-Dec-13 23:30N 40°44' W 073°58'3 5.2
2017-Dec-13 23:00N 40°42' W 074°00'2 4.1
2017-Dec-13 22:30N 40°43' W 073°58'1 1.2
2017-Dec-13 22:01N 40°44' W 073°58'3 4.9
2017-Dec-13 21:29N 40°42' W 074°00'4 8.5
2017-Dec-13 21:00N 40°46' W 074°01'0 0.0
2017-Dec-13 20:30N 40°46' W 074°01'0 0.0
2017-Dec-13 20:00N 40°46' W 074°01'0 0.0
2017-Dec-13 19:30N 40°46' W 074°01'0 0.0
2017-Dec-13 19:00N 40°46' W 074°01'0 0.0
2017-Dec-13 17:24N 40°46' W 074°01'0 0.0
2017-Dec-13 17:00N 40°46' W 074°01'0 0.0
2017-Dec-13 16:15N 40°46' W 074°01'0 0.0
2017-Dec-13 15:12N 40°46' W 074°01'211.1
2017-Dec-13 15:00N 40°44' W 074°01'3 5.3
2017-Dec-13 14:31N 40°43' W 073°58'2 3.8
2017-Dec-13 14:00N 40°44' W 073°58'3 5.4
2017-Dec-13 13:30N 40°42' W 073°60'2 3.4
2017-Dec-13 13:00N 40°43' W 073°58'1 1.7
2017-Dec-13 12:30N 40°44' W 073°58'3 5.2
2017-Dec-13 12:00N 40°42' W 074°00'4 8.2
2017-Dec-13 11:30N 40°46' W 074°01'0 0.0
2017-Dec-13 11:00N 40°46' W 074°01'0 0.0
2017-Dec-13 00:42N 40°46' W 074°01'211.8
2017-Dec-13 00:30N 40°44' W 074°01'3 5.1
2017-Dec-13 00:01N 40°43' W 073°58'1 2.9
2017-Dec-12 23:30N 40°44' W 073°58'3 5.3
2017-Dec-12 23:01N 40°42' W 073°60'2 3.7
2017-Dec-12 22:30N 40°43' W 073°58'1 1.2
2017-Dec-12 22:00N 40°44' W 073°58'3 5.0
2017-Dec-12 21:30N 40°42' W 074°00'4 0.6
2017-Dec-12 15:09N 40°46' W 074°01'213.8
2017-Dec-12 15:00N 40°44' W 074°01'3 5.4
2017-Dec-12 14:30N 40°43' W 073°58'2 3.6
2017-Dec-12 14:00N 40°44' W 073°58'3 5.3
2017-Dec-12 13:30N 40°42' W 073°60'2 3.4
2017-Dec-12 13:00N 40°43' W 073°58'1 1.4
2017-Dec-12 12:30N 40°44' W 073°58'2 4.7
2017-Dec-12 12:00N 40°42' W 073°60'3 6.4
2017-Dec-12 11:30N 40°45' W 074°01'1 2.6
2017-Dec-12 11:00N 40°47' W 074°01'0 0.0
2017-Dec-12 00:44N 40°47' W 074°01'210.7
2017-Dec-12 00:31N 40°44' W 074°01'3 5.3
2017-Dec-12 00:01N 40°43' W 073°58'1 2.1
2017-Dec-11 23:30N 40°44' W 073°58'3 5.1
2017-Dec-11 23:01N 40°42' W 074°00'2 3.9
2017-Dec-11 22:31N 40°43' W 073°58'1 1.2
2017-Dec-11 22:00N 40°44' W 073°58'3 5.0
2017-Dec-11 21:30N 40°42' W 074°00'3 7.0
2017-Dec-11 21:00N 40°46' W 074°00'1 1.3
2017-Dec-11 20:30N 40°46' W 074°01'0 0.0
2017-Dec-11 15:11N 40°46' W 074°01'213.7
2017-Dec-11 15:00N 40°44' W 074°01'2 4.8
2017-Dec-11 14:30N 40°43' W 073°58'2 3.2
2017-Dec-11 14:01N 40°44' W 073°58'2 5.0
2017-Dec-11 13:30N 40°42' W 073°60'2 3.5
2017-Dec-11 13:00N 40°43' W 073°58'1 1.6
2017-Dec-11 12:31N 40°44' W 073°58'2 4.9
2017-Dec-11 12:00N 40°42' W 074°00'3 6.2
2017-Dec-11 11:30N 40°45' W 074°01'1 2.2
2017-Dec-11 11:00N 40°46' W 074°01'  
2017-Dec-09 00:33N 40°46' W 074°01'110.8
2017-Dec-09 00:31N 40°46' W 074°01'4 7.5
2017-Dec-09 00:00N 40°43' W 073°58'1 2.8
2017-Dec-08 23:31N 40°44' W 073°58'2 4.8
2017-Dec-08 23:00N 40°42' W 074°00'2 3.9
2017-Dec-08 22:30N 40°43' W 073°58'1 1.1
2017-Dec-08 22:00N 40°44' W 073°58'2 5.0
2017-Dec-08 21:30N 40°42' W 074°00'4 8.0
2017-Dec-08 21:00N 40°46' W 074°01'0 0.0
2017-Dec-08 20:30N 40°46' W 074°01'0 0.0
2017-Dec-08 20:01N 40°46' W 074°01'0 0.0
2017-Dec-08 15:27N 40°46' W 074°01'3 7.6
2017-Dec-08 15:00N 40°43' W 074°01'2 4.9
2017-Dec-08 14:30N 40°43' W 073°58'1 2.7
2017-Dec-08 14:00N 40°45' W 073°58'3 5.6
2017-Dec-08 13:31N 40°42' W 073°60'2 3.2
2017-Dec-08 13:00N 40°43' W 073°58'1 1.9
2017-Dec-08 12:30N 40°44' W 073°58'2 4.9
2017-Dec-08 12:00N 40°42' W 073°60'2 3.6
2017-Dec-08 11:30N 40°44' W 074°01'3 5.2
2017-Dec-08 11:00N 40°46' W 074°01'0 0.0
2017-Dec-08 00:44N 40°46' W 074°01'211.1
2017-Dec-08 00:31N 40°44' W 074°01'3 5.4
2017-Dec-08 00:00N 40°43' W 073°58'1 1.8
2017-Dec-07 23:30N 40°44' W 073°58'3 5.2
2017-Dec-07 23:00N 40°42' W 074°00'2 4.0
2017-Dec-07 22:30N 40°43' W 073°58'1 1.2
2017-Dec-07 22:00N 40°44' W 073°58'3 5.1
2017-Dec-07 21:31N 40°42' W 074°00'2 4.4
2017-Dec-07 21:01N 40°44' W 074°01'2 4.4
2017-Dec-07 20:30N 40°47' W 074°01'0 0.0
2017-Dec-07 15:28N 40°47' W 074°01'2 5.2
2017-Dec-07 15:00N 40°44' W 074°01'3 5.0
2017-Dec-07 14:30N 40°43' W 073°58'1 2.9
2017-Dec-07 14:00N 40°45' W 073°58'3 5.5
2017-Dec-07 13:30N 40°42' W 073°60'2 3.1
2017-Dec-07 13:00N 40°43' W 073°58'1 2.1
2017-Dec-07 12:30N 40°44' W 073°58'2 4.9
2017-Dec-07 12:00N 40°42' W 073°60'2 4.4
2017-Dec-07 11:30N 40°44' W 074°01'1 1.4
2017-Dec-07 11:00N 40°45' W 074°01'2 0.2
2017-Dec-07 00:41N 40°47' W 074°01'212.0
2017-Dec-07 00:30N 40°44' W 074°01'3 5.3
2017-Dec-07 00:00N 40°43' W 073°58'1 2.3
2017-Dec-06 23:30N 40°44' W 073°58'3 5.5
2017-Dec-06 23:00N 40°42' W 074°00'2 4.0
2017-Dec-06 22:31N 40°43' W 073°58'1 1.3
2017-Dec-06 22:00N 40°44' W 073°58'3 4.7
2017-Dec-06 21:28N 40°42' W 074°00'4 8.7
2017-Dec-06 21:00N 40°46' W 074°01'  
Track history (hours):
 
Tides and Currents Weather Stations Pressure Air Temp Water Temp Dewpoint Dewpoint Depression Visibility Wind Speed Wind Dir Waves Ship Positions

Yogi Berra

Owner: PORT IMPERIAL FERRY, WEEHAWKEN, NJ. More information available from US FCC via Universal Licensing System and Coast Guard Vessel Documentation Center.

Last reported at 2017-Dec-16 00:39 UTC. Time now 2017-Dec-17 21:37 UTC.
Position N 40°47' W 074°01'.

Length 25 m; draft 2 m.

Type: Passenger vessel. MMSI: 367434220.

Date/timePositionNaut miles runAvg speedWind from/ knotsBaromVisibWave heightAir tempDewpointWater temp
2017-Dec-16 00:39N 40°47' W 074°01'318.3
2017-Dec-16 00:30N 40°44' W 074°01'3 5.2
2017-Dec-16 00:00N 40°43' W 073°58'1 1.3
2017-Dec-15 23:30N 40°44' W 073°58'3 4.8
2017-Dec-15 22:59N 40°42' W 074°00'2 4.4
2017-Dec-15 22:30N 40°43' W 073°58'1 1.3
2017-Dec-15 22:00N 40°44' W 073°58'3 5.1
2017-Dec-15 21:30N 40°42' W 074°00'4 7.9
2017-Dec-15 21:00N 40°46' W 074°01'0 0.0
2017-Dec-15 20:30N 40°46' W 074°01'0 0.0
2017-Dec-15 15:07N 40°46' W 074°01'112.9
2017-Dec-15 15:00N 40°45' W 074°01'3 5.7
2017-Dec-15 14:30N 40°43' W 073°58'1 2.6
2017-Dec-15 14:00N 40°44' W 073°58'2 4.6
2017-Dec-15 13:30N 40°42' W 073°60'2 3.3
2017-Dec-15 13:00N 40°43' W 073°58'1 2.4
2017-Dec-15 12:30N 40°44' W 073°58'3 5.4
2017-Dec-15 12:00N 40°42' W 073°60'4 8.0
2017-Dec-15 11:30N 40°46' W 074°01'0 0.0
2017-Dec-15 11:00N 40°46' W 074°01'0 0.0
2017-Dec-15 08:02N 40°46' W 074°01'0 0.0
2017-Dec-15 08:00N 40°46' W 074°01'0 0.0
2017-Dec-15 00:59N 40°46' W 074°01'0 0.0
2017-Dec-15 00:29N 40°46' W 074°01'2 0.2
2017-Dec-14 15:00N 40°44' W 074°01'3 5.2
2017-Dec-14 14:31N 40°43' W 073°58'1 2.7
2017-Dec-14 14:00N 40°44' W 073°58'2 4.4
2017-Dec-14 13:30N 40°42' W 073°60'2 3.5
2017-Dec-14 13:00N 40°43' W 073°58'1 1.2
2017-Dec-14 12:30N 40°44' W 073°58'2 5.0
2017-Dec-14 12:00N 40°42' W 074°00'1 1.7
2017-Dec-14 11:30N 40°42' W 074°01'4 8.6
2017-Dec-14 11:01N 40°46' W 074°01'0 0.0
2017-Dec-14 00:44N 40°46' W 074°01'1 4.8
2017-Dec-14 00:31N 40°45' W 074°01'3 5.9
2017-Dec-14 00:01N 40°43' W 073°58'1 1.7
2017-Dec-13 23:30N 40°44' W 073°58'3 5.2
2017-Dec-13 23:00N 40°42' W 074°00'2 4.1
2017-Dec-13 22:30N 40°43' W 073°58'1 1.2
2017-Dec-13 22:01N 40°44' W 073°58'3 4.9
2017-Dec-13 21:29N 40°42' W 074°00'4 8.5
2017-Dec-13 21:00N 40°46' W 074°01'0 0.0
2017-Dec-13 20:30N 40°46' W 074°01'0 0.0
2017-Dec-13 20:00N 40°46' W 074°01'0 0.0
2017-Dec-13 19:30N 40°46' W 074°01'0 0.0
2017-Dec-13 19:00N 40°46' W 074°01'0 0.0
2017-Dec-13 17:24N 40°46' W 074°01'0 0.0
2017-Dec-13 17:00N 40°46' W 074°01'0 0.0
2017-Dec-13 16:15N 40°46' W 074°01'0 0.0
2017-Dec-13 15:12N 40°46' W 074°01'211.1
2017-Dec-13 15:00N 40°44' W 074°01'3 5.3
2017-Dec-13 14:31N 40°43' W 073°58'2 3.8
2017-Dec-13 14:00N 40°44' W 073°58'3 5.4
2017-Dec-13 13:30N 40°42' W 073°60'2 3.4
2017-Dec-13 13:00N 40°43' W 073°58'1 1.7
2017-Dec-13 12:30N 40°44' W 073°58'3 5.2
2017-Dec-13 12:00N 40°42' W 074°00'4 8.2
2017-Dec-13 11:30N 40°46' W 074°01'0 0.0
2017-Dec-13 11:00N 40°46' W 074°01'0 0.0
2017-Dec-13 00:42N 40°46' W 074°01'211.8
2017-Dec-13 00:30N 40°44' W 074°01'3 5.1
2017-Dec-13 00:01N 40°43' W 073°58'1 2.9
2017-Dec-12 23:30N 40°44' W 073°58'3 5.3
2017-Dec-12 23:01N 40°42' W 073°60'2 3.7
2017-Dec-12 22:30N 40°43' W 073°58'1 1.2
2017-Dec-12 22:00N 40°44' W 073°58'3 5.0
2017-Dec-12 21:30N 40°42' W 074°00'4 0.6
2017-Dec-12 15:09N 40°46' W 074°01'213.8
2017-Dec-12 15:00N 40°44' W 074°01'3 5.4
2017-Dec-12 14:30N 40°43' W 073°58'2 3.6
2017-Dec-12 14:00N 40°44' W 073°58'3 5.3
2017-Dec-12 13:30N 40°42' W 073°60'2 3.4
2017-Dec-12 13:00N 40°43' W 073°58'1 1.4
2017-Dec-12 12:30N 40°44' W 073°58'2 4.7
2017-Dec-12 12:00N 40°42' W 073°60'3 6.4
2017-Dec-12 11:30N 40°45' W 074°01'1 2.6
2017-Dec-12 11:00N 40°47' W 074°01'0 0.0
2017-Dec-12 00:44N 40°47' W 074°01'210.7
2017-Dec-12 00:31N 40°44' W 074°01'3 5.3
2017-Dec-12 00:01N 40°43' W 073°58'1 2.1
2017-Dec-11 23:30N 40°44' W 073°58'3 5.1
2017-Dec-11 23:01N 40°42' W 074°00'2 3.9
2017-Dec-11 22:31N 40°43' W 073°58'1 1.2
2017-Dec-11 22:00N 40°44' W 073°58'3 5.0
2017-Dec-11 21:30N 40°42' W 074°00'3 7.0
2017-Dec-11 21:00N 40°46' W 074°00'1 1.3
2017-Dec-11 20:30N 40°46' W 074°01'0 0.0
2017-Dec-11 15:11N 40°46' W 074°01'213.7
2017-Dec-11 15:00N 40°44' W 074°01'2 4.8
2017-Dec-11 14:30N 40°43' W 073°58'2 3.2
2017-Dec-11 14:01N 40°44' W 073°58'2 5.0
2017-Dec-11 13:30N 40°42' W 073°60'2 3.5
2017-Dec-11 13:00N 40°43' W 073°58'1 1.6
2017-Dec-11 12:31N 40°44' W 073°58'2 4.9
2017-Dec-11 12:00N 40°42' W 074°00'3 6.2
2017-Dec-11 11:30N 40°45' W 074°01'1 2.2
2017-Dec-11 11:00N 40°46' W 074°01'  
2017-Dec-09 00:33N 40°46' W 074°01'110.8
2017-Dec-09 00:31N 40°46' W 074°01'4 7.5
2017-Dec-09 00:00N 40°43' W 073°58'1 2.8
2017-Dec-08 23:31N 40°44' W 073°58'2 4.8
2017-Dec-08 23:00N 40°42' W 074°00'2 3.9
2017-Dec-08 22:30N 40°43' W 073°58'1 1.1
2017-Dec-08 22:00N 40°44' W 073°58'2 5.0
2017-Dec-08 21:30N 40°42' W 074°00'4 8.0
2017-Dec-08 21:00N 40°46' W 074°01'0 0.0
2017-Dec-08 20:30N 40°46' W 074°01'0 0.0
2017-Dec-08 20:01N 40°46' W 074°01'0 0.0
2017-Dec-08 15:27N 40°46' W 074°01'3 7.6
2017-Dec-08 15:00N 40°43' W 074°01'2 4.9
2017-Dec-08 14:30N 40°43' W 073°58'1 2.7
2017-Dec-08 14:00N 40°45' W 073°58'3 5.6
2017-Dec-08 13:31N 40°42' W 073°60'2 3.2
2017-Dec-08 13:00N 40°43' W 073°58'1 1.9
2017-Dec-08 12:30N 40°44' W 073°58'2 4.9
2017-Dec-08 12:00N 40°42' W 073°60'2 3.6
2017-Dec-08 11:30N 40°44' W 074°01'3 5.2
2017-Dec-08 11:00N 40°46' W 074°01'0 0.0
2017-Dec-08 00:44N 40°46' W 074°01'211.1
2017-Dec-08 00:31N 40°44' W 074°01'3 5.4
2017-Dec-08 00:00N 40°43' W 073°58'1 1.8
2017-Dec-07 23:30N 40°44' W 073°58'3 5.2
2017-Dec-07 23:00N 40°42' W 074°00'2 4.0
2017-Dec-07 22:30N 40°43' W 073°58'1 1.2
2017-Dec-07 22:00N 40°44' W 073°58'3 5.1
2017-Dec-07 21:31N 40°42' W 074°00'2 4.4
2017-Dec-07 21:01N 40°44' W 074°01'2 4.4
2017-Dec-07 20:30N 40°47' W 074°01'0 0.0
2017-Dec-07 15:28N 40°47' W 074°01'2 5.2
2017-Dec-07 15:00N 40°44' W 074°01'3 5.0
2017-Dec-07 14:30N 40°43' W 073°58'1 2.9
2017-Dec-07 14:00N 40°45' W 073°58'3 5.5
2017-Dec-07 13:30N 40°42' W 073°60'2 3.1
2017-Dec-07 13:00N 40°43' W 073°58'1 2.1
2017-Dec-07 12:30N 40°44' W 073°58'2 4.9
2017-Dec-07 12:00N 40°42' W 073°60'2 4.4
2017-Dec-07 11:30N 40°44' W 074°01'1 1.4
2017-Dec-07 11:00N 40°45' W 074°01'2 0.2
2017-Dec-07 00:41N 40°47' W 074°01'212.0
2017-Dec-07 00:30N 40°44' W 074°01'3 5.3
2017-Dec-07 00:00N 40°43' W 073°58'1 2.3
2017-Dec-06 23:30N 40°44' W 073°58'3 5.5
2017-Dec-06 23:00N 40°42' W 074°00'2 4.0
2017-Dec-06 22:31N 40°43' W 073°58'1 1.3
2017-Dec-06 22:00N 40°44' W 073°58'3 4.7
2017-Dec-06 21:28N 40°42' W 074°00'4 8.7
2017-Dec-06 21:00N 40°46' W 074°01'  

Dump ship's entire track history